createdAt,value
2018-01-29T00:00:37.737Z,10.23
2018-01-29T00:01:37.467Z,10.2
2018-01-29T00:02:37.693Z,10.28
2018-01-29T00:03:37.666Z,10.22
2018-01-29T00:04:37.648Z,10.15
2018-01-29T00:05:37.370Z,10.19
2018-01-29T00:06:37.657Z,10.33
2018-01-29T00:07:37.620Z,10.3
2018-01-29T00:08:37.302Z,10.28
2018-01-29T00:09:37.517Z,10.19
2018-01-29T00:10:37.249Z,10.22
2018-01-29T00:11:37.473Z,10.16
2018-01-29T00:12:37.448Z,10.19
2018-01-29T00:13:37.183Z,10.17
2018-01-29T00:14:37.156Z,10.16
2018-01-29T00:15:37.372Z,10.16
2018-01-29T00:16:37.108Z,10.17
2018-01-29T00:17:37.327Z,10.19
2018-01-29T00:18:37.059Z,10.17
2018-01-29T00:19:37.388Z,10.23
2018-01-29T00:20:37.006Z,10.19
2018-01-29T00:21:37.231Z,10.17
2018-01-29T00:22:36.958Z,10.19
2018-01-29T00:23:37.180Z,10.05
2018-01-29T00:24:36.928Z,10.17
2018-01-29T00:25:37.135Z,10.05
2018-01-29T00:26:37.105Z,10.15
2018-01-29T00:27:37.081Z,9.99
2018-01-29T00:28:36.813Z,10.02
2018-01-29T00:29:37.036Z,10.12
2018-01-29T00:30:37.009Z,10.07
2018-01-29T00:31:36.738Z,10.02
2018-01-29T00:32:36.959Z,9.99
2018-01-29T00:33:36.690Z,9.99
2018-01-29T00:34:36.909Z,10.02
2018-01-29T00:35:36.641Z,9.99
2018-01-29T00:36:36.865Z,10.02
2018-01-29T00:37:36.591Z,10.01
2018-01-29T00:38:36.566Z,10.01
2018-01-29T00:39:36.793Z,10.12
2018-01-29T00:40:36.761Z,9.99
2018-01-29T00:41:36.744Z,10.05
2018-01-29T00:42:36.715Z,9.98
2018-01-29T00:43:36.689Z,10.01
2018-01-29T00:44:36.662Z,9.98
2018-01-29T00:45:36.635Z,9.98
2018-01-29T00:46:36.617Z,9.98
2018-01-29T00:47:36.597Z,10.01
2018-01-29T00:48:36.321Z,10.01
2018-01-29T00:49:36.537Z,9.89
2018-01-29T00:50:36.521Z,9.98
2018-01-29T00:51:36.496Z,9.95
2018-01-29T00:52:36.224Z,9.91
2018-01-29T00:53:36.199Z,9.89
2018-01-29T00:54:36.417Z,9.98
2018-01-29T00:55:36.393Z,9.91
2018-01-29T00:56:36.125Z,9.97
2018-01-29T00:57:36.346Z,9.95
2018-01-29T00:58:36.329Z,9.97
2018-01-29T00:59:36.059Z,9.99
2018-01-29T01:00:36.025Z,9.86
2018-01-29T01:01:36.251Z,9.86
2018-01-29T01:02:35.980Z,9.86
2018-01-29T01:03:36.207Z,9.89
2018-01-29T01:04:35.933Z,9.99
2018-01-29T01:05:36.150Z,9.94
2018-01-29T01:06:36.128Z,9.91
2018-01-29T01:07:36.108Z,9.94
2018-01-29T01:08:36.078Z,9.92
2018-01-29T01:09:36.050Z,9.89
2018-01-29T01:10:36.128Z,9.91
2018-01-29T01:11:36.002Z,9.89
2018-01-29T01:12:35.735Z,9.89
2018-01-29T01:13:35.709Z,9.89
2018-01-29T01:14:35.935Z,9.94
2018-01-29T01:15:35.909Z,9.97
2018-01-29T01:16:35.886Z,9.91
2018-01-29T01:17:35.609Z,9.84
2018-01-29T01:18:35.589Z,9.94
2018-01-29T01:19:35.811Z,9.94
2018-01-29T01:20:35.785Z,9.95
2018-01-29T01:21:35.763Z,9.83
2018-01-29T01:22:35.550Z,9.89
2018-01-29T01:23:37.159Z,9.87
2018-01-29T01:24:35.682Z,9.87
2018-01-29T01:25:35.166Z,9.91
2018-01-29T01:26:35.384Z,9.89
2018-01-29T01:27:35.608Z,9.91
2018-01-29T01:28:35.587Z,9.95
2018-01-29T01:29:35.314Z,9.89
2018-01-29T01:30:35.289Z,9.89
2018-01-29T01:31:35.511Z,9.92
2018-01-29T01:32:35.243Z,9.91
2018-01-29T01:33:35.461Z,9.92
2018-01-29T01:34:35.439Z,9.87
2018-01-29T01:35:35.408Z,9.89
2018-01-29T01:36:35.144Z,9.89
2018-01-29T01:37:35.359Z,9.95
2018-01-29T01:38:35.357Z,9.87
2018-01-29T01:39:35.314Z,9.89
2018-01-29T01:40:35.046Z,9.86
2018-01-29T01:41:35.268Z,9.95
2018-01-29T01:42:35.236Z,9.89
2018-01-29T01:43:35.215Z,9.95
2018-01-29T01:44:35.190Z,9.86
2018-01-29T01:45:34.917Z,9.89
2018-01-29T01:46:35.141Z,9.87
2018-01-29T01:47:35.120Z,9.87
2018-01-29T01:48:34.844Z,9.86
2018-01-29T01:49:35.063Z,9.87
2018-01-29T01:50:35.040Z,9.84
2018-01-29T01:51:35.019Z,9.83
2018-01-29T01:52:34.990Z,9.79
2018-01-29T01:53:34.718Z,9.77
2018-01-29T01:54:34.698Z,9.8
2018-01-29T01:55:34.669Z,9.79
2018-01-29T01:56:34.645Z,9.82
2018-01-29T01:57:34.875Z,9.8
2018-01-29T01:58:34.841Z,9.82
2018-01-29T01:59:34.821Z,9.84
2018-01-29T02:00:34.551Z,9.8
2018-01-29T02:01:34.768Z,9.8
2018-01-29T02:02:34.742Z,9.73
2018-01-29T02:03:34.719Z,9.74
2018-01-29T02:04:34.454Z,9.79
2018-01-29T02:05:34.670Z,9.74
2018-01-29T02:06:34.400Z,9.76
2018-01-29T02:07:34.615Z,9.73
2018-01-29T02:08:34.596Z,9.74
2018-01-29T02:09:34.569Z,9.65
2018-01-29T02:10:34.544Z,9.73
2018-01-29T02:11:36.624Z,9.69
2018-01-29T02:12:34.510Z,9.69
2018-01-29T02:13:34.471Z,9.74
2018-01-29T02:14:34.198Z,9.65
2018-01-29T02:15:34.425Z,9.72
2018-01-29T02:16:34.400Z,9.62
2018-01-29T02:17:34.370Z,9.65
2018-01-29T02:18:34.105Z,9.73
2018-01-29T02:19:34.075Z,9.62
2018-01-29T02:20:34.299Z,9.58
2018-01-29T02:21:34.026Z,9.66
2018-01-29T02:22:34.252Z,9.61
2018-01-29T02:23:34.225Z,9.64
2018-01-29T02:24:34.297Z,9.66
2018-01-29T02:25:34.290Z,9.64
2018-01-29T02:26:34.149Z,9.58
2018-01-29T02:27:34.125Z,9.58
2018-01-29T02:28:34.094Z,9.56
2018-01-29T02:29:34.073Z,9.56
2018-01-29T02:30:34.049Z,9.61
2018-01-29T02:31:34.028Z,9.56
2018-01-29T02:32:34.000Z,9.55
2018-01-29T02:33:33.982Z,9.56
2018-01-29T02:34:33.701Z,9.61
2018-01-29T02:35:33.934Z,9.65
2018-01-29T02:36:33.652Z,9.58
2018-01-29T02:37:33.627Z,9.58
2018-01-29T02:38:33.607Z,9.54
2018-01-29T02:39:33.824Z,9.59
2018-01-29T02:40:33.801Z,9.56
2018-01-29T02:41:33.787Z,9.68
2018-01-29T02:42:33.746Z,9.72
2018-01-29T02:43:33.480Z,9.58
2018-01-29T02:44:33.696Z,9.65
2018-01-29T02:45:33.677Z,9.56
2018-01-29T02:46:33.654Z,9.66
2018-01-29T02:47:33.625Z,9.66
2018-01-29T02:48:33.600Z,9.62
2018-01-29T02:49:33.575Z,9.64
2018-01-29T02:50:33.562Z,9.66
2018-01-29T02:51:33.603Z,9.61
2018-01-29T02:52:33.254Z,9.64
2018-01-29T02:53:33.478Z,9.51
2018-01-29T02:54:33.464Z,9.61
2018-01-29T02:55:33.428Z,9.58
2018-01-29T02:56:33.401Z,9.59
2018-01-29T02:57:33.377Z,9.55
2018-01-29T02:58:33.357Z,9.58
2018-01-29T02:59:33.328Z,9.58
2018-01-29T03:00:33.304Z,9.54
2018-01-29T03:01:33.277Z,9.65
2018-01-29T03:02:33.263Z,9.58
2018-01-29T03:03:32.974Z,9.65
2018-01-29T03:04:33.197Z,9.66
2018-01-29T03:05:33.178Z,9.56
2018-01-29T03:06:32.900Z,9.58
2018-01-29T03:07:33.126Z,9.56
2018-01-29T03:08:33.103Z,9.72
2018-01-29T03:09:32.829Z,9.54
2018-01-29T03:10:33.052Z,9.65
2018-01-29T03:11:33.021Z,9.69
2018-01-29T03:12:33.007Z,9.68
2018-01-29T03:13:32.727Z,9.65
2018-01-29T03:14:32.951Z,9.61
2018-01-29T03:15:32.779Z,9.64
2018-01-29T03:16:32.898Z,9.68
2018-01-29T03:17:32.628Z,9.66
2018-01-29T03:18:32.849Z,9.65
2018-01-29T03:19:32.823Z,9.66
2018-01-29T03:20:32.797Z,9.68
2018-01-29T03:21:32.785Z,9.65
2018-01-29T03:22:32.754Z,9.65
2018-01-29T03:23:32.731Z,9.72
2018-01-29T03:24:32.702Z,9.69
2018-01-29T03:25:32.433Z,9.69
2018-01-29T03:26:32.648Z,9.69
2018-01-29T03:27:32.621Z,9.66
2018-01-29T03:28:32.415Z,9.79
2018-01-29T03:29:32.573Z,9.74
2018-01-29T03:30:32.557Z,9.73
2018-01-29T03:31:32.536Z,9.77
2018-01-29T03:32:32.503Z,9.72
2018-01-29T03:33:32.234Z,9.73
2018-01-29T03:34:32.204Z,9.68
2018-01-29T03:35:32.429Z,9.76
2018-01-29T03:36:32.404Z,9.69
2018-01-29T03:37:32.390Z,9.73
2018-01-29T03:38:32.105Z,9.69
2018-01-29T03:39:32.332Z,9.76
2018-01-29T03:40:32.054Z,9.73
2018-01-29T03:41:32.279Z,9.69
2018-01-29T03:42:32.013Z,9.73
2018-01-29T03:43:32.271Z,9.77
2018-01-29T03:44:31.958Z,9.72
2018-01-29T03:45:32.175Z,9.73
2018-01-29T03:46:32.160Z,9.73
2018-01-29T03:47:31.883Z,9.73
2018-01-29T03:48:32.100Z,9.76
2018-01-29T03:49:32.077Z,9.79
2018-01-29T03:50:31.815Z,9.82
2018-01-29T03:51:32.034Z,9.76
2018-01-29T03:52:32.009Z,9.79
2018-01-29T03:53:31.729Z,9.8
2018-01-29T03:54:31.704Z,9.82
2018-01-29T03:55:31.931Z,9.8
2018-01-29T03:56:31.904Z,9.76
2018-01-29T03:57:31.881Z,9.84
2018-01-29T03:58:31.605Z,9.74
2018-01-29T03:59:31.830Z,9.79
2018-01-29T04:00:31.814Z,9.79
2018-01-29T04:01:31.773Z,9.87
2018-01-29T04:02:31.516Z,9.84
2018-01-29T04:03:31.729Z,9.89
2018-01-29T04:04:31.709Z,9.76
2018-01-29T04:05:31.430Z,9.86
2018-01-29T04:06:31.408Z,9.89
2018-01-29T04:07:31.630Z,9.89
2018-01-29T04:08:31.618Z,9.87
2018-01-29T04:09:31.581Z,9.94
2018-01-29T04:10:31.312Z,9.84
2018-01-29T04:11:31.287Z,9.86
2018-01-29T04:12:31.506Z,9.86
2018-01-29T04:13:31.480Z,9.87
2018-01-29T04:14:31.463Z,9.87
2018-01-29T04:15:31.485Z,9.97
2018-01-29T04:16:31.409Z,9.98
2018-01-29T04:17:31.383Z,9.94
2018-01-29T04:18:31.355Z,9.91
2018-01-29T04:19:31.087Z,9.95
2018-01-29T04:20:31.308Z,9.95
2018-01-29T04:21:31.037Z,9.97
2018-01-29T04:22:31.302Z,9.92
2018-01-29T04:23:31.234Z,10.01
2018-01-29T04:24:31.212Z,9.98
2018-01-29T04:25:31.185Z,10.04
2018-01-29T04:26:31.157Z,10.04
2018-01-29T04:27:30.884Z,10.04
2018-01-29T04:28:31.119Z,10.01
2018-01-29T04:29:31.085Z,10.02
2018-01-29T04:30:31.069Z,10.01
2018-01-29T04:31:30.856Z,10.1
2018-01-29T04:32:30.805Z,10.07
2018-01-29T04:33:30.740Z,10.09
2018-01-29T04:34:30.985Z,10.09
2018-01-29T04:35:30.940Z,10.05
2018-01-29T04:36:30.664Z,10.13
2018-01-29T04:37:30.884Z,10.05
2018-01-29T04:38:30.861Z,10.13
2018-01-29T04:39:30.840Z,10.1
2018-01-29T04:40:30.812Z,10.23
2018-01-29T04:41:30.787Z,10.19
2018-01-29T04:42:30.767Z,10.17
2018-01-29T04:43:30.742Z,10.19
2018-01-29T04:44:30.714Z,10.22
2018-01-29T04:45:30.689Z,10.17
2018-01-29T04:46:30.664Z,10.22
2018-01-29T04:47:30.395Z,10.2
2018-01-29T04:48:30.124Z,10.2
2018-01-29T04:49:30.346Z,10.2
2018-01-29T04:50:30.570Z,10.2
2018-01-29T04:51:30.354Z,10.16
2018-01-29T04:52:30.273Z,10.19
2018-01-29T04:53:30.247Z,10.16
2018-01-29T04:54:30.469Z,10.22
2018-01-29T04:55:30.195Z,10.16
2018-01-29T04:56:30.173Z,10.15
2018-01-29T04:57:30.396Z,10.31
2018-01-29T04:58:30.371Z,10.23
2018-01-29T04:59:30.345Z,10.34
2018-01-29T05:00:30.344Z,10.3
2018-01-29T05:01:30.303Z,10.22
2018-01-29T05:02:30.025Z,10.33
2018-01-29T05:03:30.007Z,10.19
2018-01-29T05:04:29.975Z,10.31
2018-01-29T05:05:30.197Z,10.31
2018-01-29T05:06:30.204Z,10.22
2018-01-29T05:07:30.150Z,10.23
2018-01-29T05:08:30.133Z,10.15
2018-01-29T05:09:29.851Z,10.33
2018-01-29T05:10:30.080Z,10.25
2018-01-29T05:11:30.069Z,10.19
2018-01-29T05:12:29.779Z,10.31
2018-01-29T05:13:30.007Z,10.1
2018-01-29T05:14:29.734Z,10.31
2018-01-29T05:15:29.954Z,10.33
2018-01-29T05:16:29.686Z,10.22
2018-01-29T05:17:29.658Z,10.28
2018-01-29T05:18:29.642Z,10.25
2018-01-29T05:19:29.608Z,10.28
2018-01-29T05:20:29.836Z,10.35
2018-01-29T05:21:29.810Z,10.26
2018-01-29T05:22:29.784Z,10.22
2018-01-29T05:23:29.768Z,10.3
2018-01-29T05:24:29.494Z,10.23
2018-01-29T05:25:29.708Z,10.3
2018-01-29T05:26:29.683Z,10.33
2018-01-29T05:27:29.665Z,10.3
2018-01-29T05:28:29.633Z,10.23
2018-01-29T05:29:29.620Z,10.22
2018-01-29T05:30:29.343Z,10.34
2018-01-29T05:31:29.571Z,10.2
2018-01-29T05:32:29.543Z,10.34
2018-01-29T05:33:29.518Z,10.26
2018-01-29T05:34:30.314Z,10.33
2018-01-29T05:35:29.220Z,10.33
2018-01-29T05:36:29.442Z,10.34
2018-01-29T05:37:29.415Z,10.28
2018-01-29T05:38:29.397Z,10.28
2018-01-29T05:39:28.878Z,10.33
2018-01-29T05:40:29.347Z,10.3
2018-01-29T05:41:29.323Z,10.25
2018-01-29T05:42:29.320Z,10.31
2018-01-29T05:43:29.272Z,10.22
2018-01-29T05:44:29.004Z,10.35
2018-01-29T05:45:29.224Z,10.34
2018-01-29T05:46:29.195Z,10.37
2018-01-29T05:47:28.925Z,10.31
2018-01-29T05:48:29.151Z,10.26
2018-01-29T05:49:28.883Z,10.33
2018-01-29T05:50:28.858Z,10.33
2018-01-29T05:51:29.083Z,10.3
2018-01-29T05:52:28.802Z,10.23
2018-01-29T05:53:29.028Z,10.33
2018-01-29T05:54:28.759Z,10.31
2018-01-29T05:55:28.731Z,10.34
2018-01-29T05:56:28.959Z,10.22
2018-01-29T05:57:28.938Z,10.34
2018-01-29T05:58:28.910Z,10.3
2018-01-29T05:59:28.886Z,10.3
2018-01-29T06:00:28.611Z,10.28
2018-01-29T06:01:28.838Z,10.34
2018-01-29T06:02:28.565Z,10.37
2018-01-29T06:03:28.786Z,10.3
2018-01-29T06:04:28.758Z,10.37
2018-01-29T06:05:28.495Z,10.33
2018-01-29T06:06:28.467Z,10.34
2018-01-29T06:07:28.684Z,10.35
2018-01-29T06:08:28.423Z,10.34
2018-01-29T06:09:28.644Z,10.31
2018-01-29T06:10:28.616Z,10.3
2018-01-29T06:11:28.352Z,10.22
2018-01-29T06:12:28.615Z,10.33
2018-01-29T06:13:28.546Z,10.31
2018-01-29T06:14:28.321Z,10.33
2018-01-29T06:15:28.493Z,10.3
2018-01-29T06:16:28.468Z,10.35
2018-01-29T06:17:28.196Z,10.37
2018-01-29T06:18:28.426Z,10.34
2018-01-29T06:19:27.906Z,10.35
2018-01-29T06:20:28.378Z,10.35
2018-01-29T06:21:28.348Z,10.37
2018-01-29T06:22:28.331Z,10.37
2018-01-29T06:23:28.302Z,10.35
2018-01-29T06:24:28.274Z,10.38
2018-01-29T06:25:29.237Z,10.41
2018-01-29T06:26:27.979Z,10.54
2018-01-29T06:27:28.204Z,10.41
2018-01-29T06:28:28.178Z,10.57
2018-01-29T06:29:27.903Z,10.4
2018-01-29T06:30:28.129Z,10.37
2018-01-29T06:31:28.103Z,10.4
2018-01-29T06:32:28.079Z,10.4
2018-01-29T06:33:28.052Z,10.4
2018-01-29T06:34:28.032Z,10.49
2018-01-29T06:35:28.012Z,10.41
2018-01-29T06:36:27.982Z,10.41
2018-01-29T06:37:27.954Z,10.44
2018-01-29T06:38:28.038Z,10.4
2018-01-29T06:39:27.966Z,10.38
2018-01-29T06:40:27.889Z,10.38
2018-01-29T06:41:27.860Z,10.42
2018-01-29T06:42:27.839Z,10.44
2018-01-29T06:43:27.814Z,10.38
2018-01-29T06:44:27.544Z,10.38
2018-01-29T06:45:27.768Z,10.38
2018-01-29T06:46:27.496Z,10.38
2018-01-29T06:47:27.470Z,10.34
2018-01-29T06:48:27.698Z,10.46
2018-01-29T06:49:27.673Z,10.35
2018-01-29T06:50:27.396Z,10.37
2018-01-29T06:51:27.419Z,10.35
2018-01-29T06:52:27.593Z,10.44
2018-01-29T06:53:27.574Z,10.35
2018-01-29T06:54:27.304Z,10.48
2018-01-29T06:55:27.524Z,10.38
2018-01-29T06:56:27.501Z,10.37
2018-01-29T06:57:27.233Z,10.41
2018-01-29T06:58:27.454Z,10.37
2018-01-29T06:59:27.180Z,10.35
2018-01-29T07:00:27.406Z,10.4
2018-01-29T07:01:27.382Z,10.46
2018-01-29T07:02:27.355Z,10.38
2018-01-29T07:03:27.331Z,10.34
2018-01-29T07:04:27.055Z,10.34
2018-01-29T07:05:27.276Z,10.3
2018-01-29T07:06:27.253Z,10.46
2018-01-29T07:07:26.984Z,10.42
2018-01-29T07:08:26.962Z,10.48
2018-01-29T07:09:26.937Z,10.42
2018-01-29T07:10:27.160Z,10.37
2018-01-29T07:11:27.136Z,10.4
2018-01-29T07:12:27.191Z,10.42
2018-01-29T07:13:27.167Z,10.4
2018-01-29T07:14:26.819Z,10.34
2018-01-29T07:15:26.794Z,10.42
2018-01-29T07:16:27.013Z,10.48
2018-01-29T07:17:26.995Z,10.41
2018-01-29T07:18:26.721Z,10.38
2018-01-29T07:19:26.694Z,10.46
2018-01-29T07:20:26.918Z,10.42
2018-01-29T07:21:26.895Z,10.46
2018-01-29T07:22:26.879Z,10.4
2018-01-29T07:23:26.849Z,10.37
2018-01-29T07:24:26.824Z,10.31
2018-01-29T07:25:26.548Z,10.49
2018-01-29T07:26:26.770Z,10.41
2018-01-29T07:27:26.743Z,10.37
2018-01-29T07:28:26.811Z,10.41
2018-01-29T07:29:26.456Z,10.41
2018-01-29T07:30:26.671Z,10.31
2018-01-29T07:31:26.158Z,10.34
2018-01-29T07:32:26.381Z,10.35
2018-01-29T07:33:26.132Z,10.41
2018-01-29T07:34:26.850Z,10.37
2018-01-29T07:35:26.553Z,10.4
2018-01-29T07:36:26.529Z,10.37
2018-01-29T07:37:26.256Z,10.46
2018-01-29T07:38:26.628Z,10.42
2018-01-29T07:39:26.210Z,10.44
2018-01-29T07:40:26.442Z,10.41
2018-01-29T07:41:26.720Z,10.34
2018-01-29T07:42:26.589Z,10.4
2018-01-29T07:43:26.383Z,10.41
2018-01-29T07:44:26.345Z,10.49
2018-01-29T07:45:26.214Z,10.37
2018-01-29T07:46:26.472Z,10.37
2018-01-29T07:47:26.207Z,10.37
2018-01-29T07:48:26.264Z,10.34
2018-01-29T07:49:26.093Z,10.31
2018-01-29T07:50:26.199Z,10.33
2018-01-29T07:51:26.180Z,10.38
2018-01-29T07:52:25.906Z,10.35
2018-01-29T07:53:26.123Z,10.34
2018-01-29T07:54:26.106Z,10.35
2018-01-29T07:55:26.077Z,10.35
2018-01-29T07:56:26.059Z,10.4
2018-01-29T07:57:25.853Z,10.31
2018-01-29T07:58:26.059Z,10.42
2018-01-29T07:59:25.981Z,10.34
2018-01-29T08:00:25.462Z,10.44
2018-01-29T08:01:25.687Z,10.42
2018-01-29T08:02:25.705Z,10.37
2018-01-29T08:03:25.884Z,10.4
2018-01-29T08:04:25.906Z,10.42
2018-01-29T08:05:25.842Z,10.42
2018-01-29T08:06:25.570Z,10.35
2018-01-29T08:07:25.545Z,10.35
2018-01-29T08:08:25.773Z,10.35
2018-01-29T08:09:25.748Z,10.34
2018-01-29T08:10:25.729Z,10.33
2018-01-29T08:11:25.446Z,10.38
2018-01-29T08:12:25.677Z,10.38
2018-01-29T08:13:25.250Z,10.37
2018-01-29T08:14:25.868Z,10.38
2018-01-29T08:15:25.352Z,10.46
2018-01-29T08:16:25.573Z,10.37
2018-01-29T08:17:25.305Z,10.35
2018-01-29T08:18:25.280Z,10.44
2018-01-29T08:19:25.501Z,10.34
2018-01-29T08:20:25.489Z,10.33
2018-01-29T08:21:25.454Z,10.46
2018-01-29T08:22:25.427Z,10.31
2018-01-29T08:23:25.407Z,10.4
2018-01-29T08:24:25.136Z,10.37
2018-01-29T08:25:25.362Z,10.38
2018-01-29T08:26:25.334Z,10.41
2018-01-29T08:27:25.063Z,10.37
2018-01-29T08:28:25.040Z,10.35
2018-01-29T08:29:25.686Z,10.4
2018-01-29T08:30:25.243Z,10.38
2018-01-29T08:31:25.213Z,10.35
2018-01-29T08:32:25.199Z,10.4
2018-01-29T08:33:24.925Z,10.44
2018-01-29T08:34:25.146Z,10.3
2018-01-29T08:35:24.882Z,10.34
2018-01-29T08:36:25.103Z,10.51
2018-01-29T08:37:25.077Z,10.33
2018-01-29T08:38:24.808Z,10.33
2018-01-29T08:39:24.781Z,10.4
2018-01-29T08:40:24.754Z,10.38
2018-01-29T08:41:24.976Z,10.37
2018-01-29T08:42:24.957Z,10.41
2018-01-29T08:43:24.686Z,10.44
2018-01-29T08:44:24.412Z,10.38
2018-01-29T08:45:24.880Z,10.42
2018-01-29T08:46:24.861Z,10.48
2018-01-29T08:47:24.449Z,10.4
2018-01-29T08:48:24.816Z,10.41
2018-01-29T08:49:24.834Z,10.44
2018-01-29T08:50:24.764Z,10.46
2018-01-29T08:51:24.749Z,10.41
2018-01-29T08:52:24.715Z,10.4
2018-01-29T08:53:24.760Z,10.48
2018-01-29T08:54:24.668Z,10.46
2018-01-29T08:55:24.653Z,10.51
2018-01-29T08:56:24.625Z,10.48
2018-01-29T08:57:24.351Z,10.51
2018-01-29T08:58:25.318Z,10.42
2018-01-29T08:59:24.305Z,10.51
2018-01-29T09:00:24.527Z,10.37
2018-01-29T09:01:24.504Z,10.51
2018-01-29T09:02:24.478Z,10.54
2018-01-29T09:03:24.210Z,10.49
2018-01-29T09:04:24.186Z,10.41
2018-01-29T09:05:24.411Z,10.42
2018-01-29T09:06:24.396Z,10.46
2018-01-29T09:07:25.095Z,10.44
2018-01-29T09:08:25.496Z,10.42
2018-01-29T09:09:26.069Z,10.44
2018-01-29T09:10:25.187Z,10.42
2018-01-29T09:11:25.427Z,10.41
2018-01-29T09:12:24.762Z,10.51
2018-01-29T09:13:24.341Z,10.38
2018-01-29T09:14:24.197Z,10.46
2018-01-29T09:15:23.930Z,10.48
2018-01-29T09:16:24.115Z,10.38
2018-01-29T09:17:24.135Z,10.46
2018-01-29T09:18:23.610Z,10.54
2018-01-29T09:19:23.835Z,10.56
2018-01-29T09:20:24.324Z,10.63
2018-01-29T09:21:23.937Z,10.56
2018-01-29T09:22:24.444Z,10.6
2018-01-29T09:23:24.280Z,10.51
2018-01-29T09:24:24.277Z,10.6
2018-01-29T09:25:23.947Z,10.53
2018-01-29T09:26:24.186Z,10.57
2018-01-29T09:27:23.910Z,10.54
2018-01-29T09:28:24.803Z,10.63
2018-01-29T09:29:24.216Z,10.41
2018-01-29T09:30:24.062Z,10.57
2018-01-29T09:31:23.800Z,10.56
2018-01-29T09:32:23.564Z,10.49
2018-01-29T09:33:23.550Z,10.48
2018-01-29T09:34:23.810Z,10.44
2018-01-29T09:35:23.704Z,10.51
2018-01-29T09:36:23.433Z,10.48
2018-01-29T09:37:23.414Z,10.46
2018-01-29T09:38:23.631Z,10.44
2018-01-29T09:39:23.116Z,10.44
2018-01-29T09:40:23.338Z,10.44
2018-01-29T09:41:23.665Z,10.54
2018-01-29T09:42:23.294Z,10.46
2018-01-29T09:43:23.517Z,10.42
2018-01-29T09:44:23.577Z,10.51
2018-01-29T09:45:24.205Z,10.54
2018-01-29T09:46:23.543Z,10.63
2018-01-29T09:47:23.421Z,10.56
2018-01-29T09:48:23.152Z,10.6
2018-01-29T09:49:23.129Z,10.59
2018-01-29T09:50:23.351Z,10.57
2018-01-29T09:51:23.325Z,10.54
2018-01-29T09:52:23.348Z,10.56
2018-01-29T09:53:23.579Z,10.57
2018-01-29T09:54:23.256Z,10.54
2018-01-29T09:55:23.234Z,10.63
2018-01-29T09:56:23.308Z,10.61
2018-01-29T09:57:22.940Z,10.56
2018-01-29T09:58:23.169Z,10.57
2018-01-29T09:59:22.893Z,10.67
2018-01-29T10:00:23.120Z,10.57
2018-01-29T10:01:23.089Z,10.59
2018-01-29T10:02:23.067Z,10.56
2018-01-29T10:03:22.797Z,10.61
2018-01-29T10:04:22.778Z,10.6
2018-01-29T10:05:22.754Z,10.6
2018-01-29T10:06:22.972Z,10.67
2018-01-29T10:07:22.953Z,10.64
2018-01-29T10:08:22.928Z,10.56
2018-01-29T10:09:22.407Z,10.57
2018-01-29T10:10:22.878Z,10.64
2018-01-29T10:11:22.855Z,10.67
2018-01-29T10:12:22.831Z,10.67
2018-01-29T10:13:22.564Z,10.59
2018-01-29T10:14:22.785Z,10.68
2018-01-29T10:15:22.758Z,10.68
2018-01-29T10:16:22.740Z,10.61
2018-01-29T10:17:22.709Z,10.61
2018-01-29T10:18:22.448Z,10.67
2018-01-29T10:19:22.675Z,10.74
2018-01-29T10:20:22.642Z,10.69
2018-01-29T10:21:22.623Z,10.75
2018-01-29T10:22:22.360Z,10.74
2018-01-29T10:23:23.216Z,10.74
2018-01-29T10:24:22.890Z,10.71
2018-01-29T10:25:23.065Z,10.72
2018-01-29T10:26:22.904Z,10.78
2018-01-29T10:27:22.286Z,10.75
2018-01-29T10:28:22.464Z,10.76
2018-01-29T10:29:22.190Z,10.75
2018-01-29T10:30:22.411Z,10.74
2018-01-29T10:31:22.141Z,10.76
2018-01-29T10:32:22.130Z,10.79
2018-01-29T10:33:22.343Z,10.76
2018-01-29T10:34:22.319Z,10.69
2018-01-29T10:35:22.307Z,10.72
2018-01-29T10:36:22.271Z,10.76
2018-01-29T10:37:22.350Z,10.69
2018-01-29T10:38:22.231Z,10.72
2018-01-29T10:39:22.211Z,10.76
2018-01-29T10:40:21.989Z,10.69
2018-01-29T10:41:22.159Z,10.76
2018-01-29T10:42:22.135Z,10.78
2018-01-29T10:43:22.187Z,10.76
2018-01-29T10:44:21.848Z,10.69
2018-01-29T10:45:22.067Z,10.74
2018-01-29T10:46:21.797Z,10.72
2018-01-29T10:47:21.777Z,10.74
2018-01-29T10:48:22.007Z,10.64
2018-01-29T10:49:21.492Z,10.64
2018-01-29T10:50:21.976Z,10.69
2018-01-29T10:51:21.933Z,10.75
2018-01-29T10:52:21.906Z,10.61
2018-01-29T10:53:21.890Z,10.71
2018-01-29T10:54:21.867Z,10.63
2018-01-29T10:55:21.588Z,10.63
2018-01-29T10:56:21.926Z,10.74
2018-01-29T10:57:21.793Z,10.63
2018-01-29T10:58:21.518Z,10.72
2018-01-29T10:59:21.504Z,10.64
2018-01-29T11:00:21.474Z,10.75
2018-01-29T11:01:21.579Z,10.71
2018-01-29T11:02:22.205Z,10.71
2018-01-29T11:03:21.801Z,10.69
2018-01-29T11:04:21.713Z,10.69
2018-01-29T11:05:21.606Z,10.6
2018-01-29T11:06:21.623Z,10.68
2018-01-29T11:07:21.576Z,10.74
2018-01-29T11:08:21.542Z,10.71
2018-01-29T11:09:21.510Z,10.61
2018-01-29T11:10:21.771Z,10.68
2018-01-29T11:11:21.220Z,10.75
2018-01-29T11:12:21.731Z,10.68
2018-01-29T11:13:21.565Z,10.72
2018-01-29T11:14:21.148Z,10.75
2018-01-29T11:15:21.301Z,10.71
2018-01-29T11:16:21.360Z,10.69
2018-01-29T11:17:22.327Z,10.75
2018-01-29T11:18:21.897Z,10.72
2018-01-29T11:19:21.338Z,10.71
2018-01-29T11:20:21.336Z,10.68
2018-01-29T11:21:22.138Z,10.63
2018-01-29T11:22:21.048Z,10.61
2018-01-29T11:23:20.945Z,10.6
2018-01-29T11:24:21.171Z,10.64
2018-01-29T11:25:21.146Z,10.68
2018-01-29T11:26:21.126Z,10.68
2018-01-29T11:27:21.102Z,10.64
2018-01-29T11:28:21.076Z,10.74
2018-01-29T11:29:21.058Z,10.79
2018-01-29T11:30:21.037Z,10.74
2018-01-29T11:31:21.012Z,10.75
2018-01-29T11:32:20.995Z,10.78
2018-01-29T11:33:20.960Z,10.78
2018-01-29T11:34:20.946Z,10.75
2018-01-29T11:35:20.919Z,10.69
2018-01-29T11:36:20.898Z,10.75
2018-01-29T11:37:20.983Z,10.76
2018-01-29T11:38:20.607Z,10.76
2018-01-29T11:39:20.866Z,10.76
2018-01-29T11:40:20.558Z,10.75
2018-01-29T11:41:20.779Z,10.72
2018-01-29T11:42:20.753Z,10.75
2018-01-29T11:43:20.489Z,10.59
2018-01-29T11:44:20.556Z,10.64
2018-01-29T11:45:21.902Z,10.76
2018-01-29T11:46:20.420Z,10.71
2018-01-29T11:47:20.395Z,10.68
2018-01-29T11:48:20.621Z,10.79
2018-01-29T11:49:20.356Z,10.72
2018-01-29T11:50:20.555Z,10.71
2018-01-29T11:51:20.307Z,10.75
2018-01-29T11:52:21.479Z,10.75
2018-01-29T11:53:20.637Z,10.68
2018-01-29T11:54:21.084Z,10.79
2018-01-29T11:55:20.461Z,10.68
2018-01-29T11:56:20.434Z,10.71
2018-01-29T11:57:20.412Z,10.71
2018-01-29T11:58:20.393Z,10.72
2018-01-29T11:59:20.369Z,10.78
2018-01-29T12:00:20.343Z,10.72
2018-01-29T12:01:20.322Z,10.74
2018-01-29T12:02:20.055Z,10.69
2018-01-29T12:03:20.279Z,10.74
2018-01-29T12:04:20.295Z,10.69
2018-01-29T12:05:20.227Z,10.74
2018-01-29T12:06:20.261Z,10.75
2018-01-29T12:07:19.938Z,10.75
2018-01-29T12:08:20.161Z,10.82
2018-01-29T12:09:20.136Z,10.71
2018-01-29T12:10:20.109Z,10.72
2018-01-29T12:11:20.091Z,10.69
2018-01-29T12:12:20.068Z,10.72
2018-01-29T12:13:20.043Z,10.71
2018-01-29T12:14:19.779Z,10.81
2018-01-29T12:15:20.003Z,10.69
2018-01-29T12:16:19.736Z,10.74
2018-01-29T12:17:19.952Z,10.75
2018-01-29T12:18:19.936Z,10.72
2018-01-29T12:19:20.760Z,10.75
2018-01-29T12:20:19.896Z,10.79
2018-01-29T12:21:19.854Z,10.87
2018-01-29T12:22:19.837Z,10.74
2018-01-29T12:23:19.822Z,10.82
2018-01-29T12:24:19.589Z,10.82
2018-01-29T12:25:19.768Z,10.86
2018-01-29T12:26:19.748Z,10.79
2018-01-29T12:27:19.724Z,10.75
2018-01-29T12:28:19.724Z,10.79
2018-01-29T12:29:19.432Z,10.74
2018-01-29T12:30:19.418Z,10.75
2018-01-29T12:31:19.382Z,10.75
2018-01-29T12:32:19.605Z,10.64
2018-01-29T12:33:19.685Z,10.82
2018-01-29T12:34:19.312Z,10.78
2018-01-29T12:35:19.545Z,10.76
2018-01-29T12:36:19.510Z,10.78
2018-01-29T12:37:19.498Z,10.84
2018-01-29T12:38:19.221Z,10.75
2018-01-29T12:39:19.708Z,10.74
2018-01-29T12:40:19.580Z,10.74
2018-01-29T12:41:19.397Z,10.82
2018-01-29T12:42:19.134Z,10.69
2018-01-29T12:43:19.354Z,10.75
2018-01-29T12:44:19.334Z,10.75
2018-01-29T12:45:19.303Z,10.69
2018-01-29T12:46:18.794Z,10.74
2018-01-29T12:47:19.287Z,10.78
2018-01-29T12:48:18.772Z,10.74
2018-01-29T12:49:18.966Z,10.81
2018-01-29T12:50:19.203Z,10.68
2018-01-29T12:51:19.167Z,10.78
2018-01-29T12:52:18.902Z,10.75
2018-01-29T12:53:18.881Z,10.71
2018-01-29T12:54:19.101Z,10.74
2018-01-29T12:55:19.081Z,10.72
2018-01-29T12:56:18.821Z,10.78
2018-01-29T12:57:19.023Z,10.71
2018-01-29T12:58:19.003Z,10.72
2018-01-29T12:59:18.984Z,10.76
2018-01-29T13:00:19.257Z,10.72
2018-01-29T13:01:18.690Z,10.74